Suederoog — ZDHC8 — position and weather

sailwx.info

Track history (hours):
 
Tides and Currents Weather Stations Pressure Air Temp Water Temp Dewpoint Dewpoint Depression Visibility Wind Speed Wind Dir Waves Ship Positions

Suederoog

Last reported at 2017-Apr-28 00:30 UTC. Time now 2017-Apr-28 00:34 UTC.
Position N 35°58' W 005°33'.

Length 161 m; draft 10.2 m.

Type: Ship (hazmat cat A). MMSI: 236300000.

Date/timePositionNaut miles runAvg speedWind from/ knotsBaromVisibWave heightAir tempDewpointWater temp
2017-Apr-28 00:30N 35°58' W 005°33'611.4
2017-Apr-28 00:01N 36°00' W 005°26'5 9.7
2017-Apr-27 23:31N 36°04' W 005°23'5 9.6
2017-Apr-27 23:01N 36°09' W 005°25'1 1.9
2017-Apr-27 22:30N 36°09' W 005°26'0 0.0
2017-Apr-27 22:00N 36°09' W 005°26'0 0.0
2017-Apr-27 21:30N 36°09' W 005°26'0 0.0
2017-Apr-27 21:00N 36°09' W 005°26'0 0.0
2017-Apr-27 20:30N 36°09' W 005°26'0 0.0
2017-Apr-27 20:00N 36°09' W 005°26'0 0.0
2017-Apr-27 19:30N 36°09' W 005°26'0 0.0
2017-Apr-27 19:00N 36°09' W 005°26'0 0.0
2017-Apr-27 18:30N 36°09' W 005°26'0 0.0
2017-Apr-27 18:00N 36°09' W 005°26'0 0.0
2017-Apr-27 17:30N 36°09' W 005°26'0 0.0
2017-Apr-27 17:00N 36°09' W 005°26'0 0.0
2017-Apr-27 16:30N 36°09' W 005°26'0 0.0
2017-Apr-27 16:00N 36°09' W 005°26'0 0.0
2017-Apr-27 15:30N 36°09' W 005°26'0 0.0
2017-Apr-27 15:00N 36°09' W 005°26'0 0.0
2017-Apr-27 14:00N 36°09' W 005°26'0 0.0
2017-Apr-27 13:30N 36°09' W 005°26'0 0.0
2017-Apr-27 13:00N 36°09' W 005°26'0 0.0
2017-Apr-27 12:30N 36°09' W 005°26'0 0.0
2017-Apr-27 12:00N 36°09' W 005°26'0 0.0
2017-Apr-27 11:30N 36°09' W 005°26'0 0.0
2017-Apr-27 11:00N 36°09' W 005°26'1 2.7
2017-Apr-27 10:30N 36°09' W 005°25'4 7.6
2017-Apr-27 10:00N 36°06' W 005°22'611.4
2017-Apr-27 09:30N 36°05' W 005°15'611.9
2017-Apr-27 08:59N 36°07' W 005°08'3 0.5
2017-Apr-27 04:21N 36°08' W 005°06'411.8
2017-Apr-27 04:00N 36°07' W 005°10'5 0.3
2017-Apr-26 10:45N 36°11' W 005°11'1 3.2
2017-Apr-26 10:30N 36°12' W 005°12'1 2.4
2017-Apr-26 10:00N 36°11' W 005°12'611.8
2017-Apr-26 09:30N 36°06' W 005°17'612.4
2017-Apr-26 09:01N 36°02' W 005°23'611.6
2017-Apr-26 08:30N 35°57' W 005°27'5 9.4
2017-Apr-26 08:00N 35°53' W 005°30'0 0.1
2017-Apr-26 07:31N 35°53' W 005°30'0 0.0
2017-Apr-26 06:40N 35°53' W 005°30'0 0.0
2017-Apr-26 06:27N 35°53' W 005°30'0 0.0
2017-Apr-26 05:58N 35°53' W 005°30'0 0.0
2017-Apr-26 05:31N 35°53' W 005°30'0 0.0
2017-Apr-26 04:51N 35°53' W 005°30'0 0.0
2017-Apr-26 04:16N 35°53' W 005°30'0 0.0
2017-Apr-26 04:00N 35°53' W 005°30'0 0.0
2017-Apr-26 03:30N 35°53' W 005°30'0 0.0
2017-Apr-26 02:51N 35°53' W 005°30'0 0.0
2017-Apr-26 02:27N 35°53' W 005°30'0 0.0
2017-Apr-26 01:57N 35°53' W 005°30'0 0.0
2017-Apr-26 01:27N 35°53' W 005°30'0 0.0
2017-Apr-26 00:55N 35°53' W 005°30'0 0.0
2017-Apr-26 00:30N 35°53' W 005°30'0 0.0
2017-Apr-26 00:01N 35°53' W 005°30'0 0.4
2017-Apr-25 23:30N 35°54' W 005°30'2 3.7
2017-Apr-25 23:00N 35°55' W 005°32'1 1.7
2017-Apr-25 22:30N 35°54' W 005°32'1 1.3
2017-Apr-25 22:00N 35°54' W 005°33'3 5.0
2017-Apr-25 21:29N 35°55' W 005°36'4 7.9
2017-Apr-25 21:00N 35°55' W 005°41'1210.9
2017-Apr-25 19:57N 35°55' W 005°55'  
2017-Apr-20 15:01N 35°57' W 005°37'113.2
2017-Apr-20 14:55N 35°57' W 005°36'511.3
2017-Apr-20 14:30N 35°58' W 005°30'10 9.0
2017-Apr-20 13:25N 35°55' W 005°41'89 6.6
2017-Apr-20 00:03N 36°10' W 007°30'0 7.2
2017-Apr-19 23:59N 36°10' W 007°30'4 7.9
2017-Apr-19 23:28N 36°11' W 007°35'4 8.3
2017-Apr-19 22:59N 36°12' W 007°40'4 8.5
2017-Apr-19 22:29N 36°13' W 007°45'3 6.6
2017-Apr-19 22:00N 36°14' W 007°49'4 8.4
2017-Apr-19 21:30N 36°16' W 007°54'5 8.9
2017-Apr-19 20:59N 36°17' W 007°59'5 9.4
2017-Apr-19 20:28N 36°19' W 008°05'4 9.3
2017-Apr-19 19:59N 36°20' W 008°10'1310.1
2017-Apr-19 18:40N 36°23' W 008°26'210.8
2017-Apr-19 18:27N 36°24' W 008°29'511.0
2017-Apr-19 18:00N 36°25' W 008°35'711.5
2017-Apr-19 17:22N 36°27' W 008°44'911.1
2017-Apr-19 16:33N 36°29' W 008°54'110.9
2017-Apr-19 16:30N 36°30' W 008°55'611.1
2017-Apr-19 16:00N 36°31' W 009°02'1611.2
2017-Apr-19 14:32N 36°37' W 009°21'311.7
2017-Apr-19 14:18N 36°39' W 009°23'911.5
2017-Apr-19 13:30N 36°46' W 009°31'611.4
2017-Apr-19 13:00N 36°51' W 009°34'611.5
2017-Apr-19 12:30N 36°57' W 009°35'611.4
2017-Apr-19 11:59N 37°02' W 009°37'711.1
2017-Apr-19 11:23N 37°09' W 009°39'811.1
2017-Apr-19 10:41N 37°17' W 009°41'311.4
2017-Apr-19 10:25N 37°20' W 009°42'511.6
2017-Apr-19 10:00N 37°24' W 009°43'611.5
2017-Apr-19 09:29N 37°30' W 009°45'713.0
2017-Apr-19 08:57N 37°37' W 009°47'816.9
2017-Apr-19 08:28N 37°45' W 009°50'712.3
2017-Apr-19 07:53N 37°52' W 009°51'812.2
2017-Apr-19 07:14N 37°59' W 009°54'912.4
2017-Apr-19 06:29N 38°09' W 009°56'612.6
2017-Apr-19 06:00N 38°14' W 009°58'612.4
2017-Apr-19 05:30N 38°20' W 010°00'612.7
2017-Apr-19 05:00N 38°27' W 010°02'612.5
2017-Apr-19 04:30N 38°33' W 010°04'612.4
2017-Apr-19 04:00N 38°39' W 010°05'612.4
2017-Apr-19 03:30N 38°45' W 010°06'612.6
2017-Apr-19 03:00N 38°51' W 010°06'612.6
2017-Apr-19 02:30N 38°58' W 010°06'612.7
2017-Apr-19 02:00N 39°04' W 010°06'612.4
2017-Apr-19 01:30N 39°10' W 010°06'612.4
2017-Apr-19 01:00N 39°16' W 010°06'612.3
2017-Apr-19 00:30N 39°22' W 010°06'612.4
2017-Apr-19 00:00N 39°29' W 010°06'712.3
2017-Apr-18 23:28N 39°35' W 010°06'1012.3
2017-Apr-18 22:39N 39°45' W 010°06'212.5
2017-Apr-18 22:29N 39°47' W 010°06'1412.3
2017-Apr-18 21:19N 40°02' W 010°06'  
Track history (hours):
 
Tides and Currents Weather Stations Pressure Air Temp Water Temp Dewpoint Dewpoint Depression Visibility Wind Speed Wind Dir Waves Ship Positions

Suederoog

Last reported at 2017-Apr-28 00:30 UTC. Time now 2017-Apr-28 00:34 UTC.
Position N 35°58' W 005°33'.

Length 161 m; draft 10.2 m.

Type: Ship (hazmat cat A). MMSI: 236300000.

Date/timePositionNaut miles runAvg speedWind from/ knotsBaromVisibWave heightAir tempDewpointWater temp
2017-Apr-28 00:30N 35°58' W 005°33'611.4
2017-Apr-28 00:01N 36°00' W 005°26'5 9.7
2017-Apr-27 23:31N 36°04' W 005°23'5 9.6
2017-Apr-27 23:01N 36°09' W 005°25'1 1.9
2017-Apr-27 22:30N 36°09' W 005°26'0 0.0
2017-Apr-27 22:00N 36°09' W 005°26'0 0.0
2017-Apr-27 21:30N 36°09' W 005°26'0 0.0
2017-Apr-27 21:00N 36°09' W 005°26'0 0.0
2017-Apr-27 20:30N 36°09' W 005°26'0 0.0
2017-Apr-27 20:00N 36°09' W 005°26'0 0.0
2017-Apr-27 19:30N 36°09' W 005°26'0 0.0
2017-Apr-27 19:00N 36°09' W 005°26'0 0.0
2017-Apr-27 18:30N 36°09' W 005°26'0 0.0
2017-Apr-27 18:00N 36°09' W 005°26'0 0.0
2017-Apr-27 17:30N 36°09' W 005°26'0 0.0
2017-Apr-27 17:00N 36°09' W 005°26'0 0.0
2017-Apr-27 16:30N 36°09' W 005°26'0 0.0
2017-Apr-27 16:00N 36°09' W 005°26'0 0.0
2017-Apr-27 15:30N 36°09' W 005°26'0 0.0
2017-Apr-27 15:00N 36°09' W 005°26'0 0.0
2017-Apr-27 14:00N 36°09' W 005°26'0 0.0
2017-Apr-27 13:30N 36°09' W 005°26'0 0.0
2017-Apr-27 13:00N 36°09' W 005°26'0 0.0
2017-Apr-27 12:30N 36°09' W 005°26'0 0.0
2017-Apr-27 12:00N 36°09' W 005°26'0 0.0
2017-Apr-27 11:30N 36°09' W 005°26'0 0.0
2017-Apr-27 11:00N 36°09' W 005°26'1 2.7
2017-Apr-27 10:30N 36°09' W 005°25'4 7.6
2017-Apr-27 10:00N 36°06' W 005°22'611.4
2017-Apr-27 09:30N 36°05' W 005°15'611.9
2017-Apr-27 08:59N 36°07' W 005°08'3 0.5
2017-Apr-27 04:21N 36°08' W 005°06'411.8
2017-Apr-27 04:00N 36°07' W 005°10'5 0.3
2017-Apr-26 10:45N 36°11' W 005°11'1 3.2
2017-Apr-26 10:30N 36°12' W 005°12'1 2.4
2017-Apr-26 10:00N 36°11' W 005°12'611.8
2017-Apr-26 09:30N 36°06' W 005°17'612.4
2017-Apr-26 09:01N 36°02' W 005°23'611.6
2017-Apr-26 08:30N 35°57' W 005°27'5 9.4
2017-Apr-26 08:00N 35°53' W 005°30'0 0.1
2017-Apr-26 07:31N 35°53' W 005°30'0 0.0
2017-Apr-26 06:40N 35°53' W 005°30'0 0.0
2017-Apr-26 06:27N 35°53' W 005°30'0 0.0
2017-Apr-26 05:58N 35°53' W 005°30'0 0.0
2017-Apr-26 05:31N 35°53' W 005°30'0 0.0
2017-Apr-26 04:51N 35°53' W 005°30'0 0.0
2017-Apr-26 04:16N 35°53' W 005°30'0 0.0
2017-Apr-26 04:00N 35°53' W 005°30'0 0.0
2017-Apr-26 03:30N 35°53' W 005°30'0 0.0
2017-Apr-26 02:51N 35°53' W 005°30'0 0.0
2017-Apr-26 02:27N 35°53' W 005°30'0 0.0
2017-Apr-26 01:57N 35°53' W 005°30'0 0.0
2017-Apr-26 01:27N 35°53' W 005°30'0 0.0
2017-Apr-26 00:55N 35°53' W 005°30'0 0.0
2017-Apr-26 00:30N 35°53' W 005°30'0 0.0
2017-Apr-26 00:01N 35°53' W 005°30'0 0.4
2017-Apr-25 23:30N 35°54' W 005°30'2 3.7
2017-Apr-25 23:00N 35°55' W 005°32'1 1.7
2017-Apr-25 22:30N 35°54' W 005°32'1 1.3
2017-Apr-25 22:00N 35°54' W 005°33'3 5.0
2017-Apr-25 21:29N 35°55' W 005°36'4 7.9
2017-Apr-25 21:00N 35°55' W 005°41'1210.9
2017-Apr-25 19:57N 35°55' W 005°55'  
2017-Apr-20 15:01N 35°57' W 005°37'113.2
2017-Apr-20 14:55N 35°57' W 005°36'511.3
2017-Apr-20 14:30N 35°58' W 005°30'10 9.0
2017-Apr-20 13:25N 35°55' W 005°41'89 6.6
2017-Apr-20 00:03N 36°10' W 007°30'0 7.2
2017-Apr-19 23:59N 36°10' W 007°30'4 7.9
2017-Apr-19 23:28N 36°11' W 007°35'4 8.3
2017-Apr-19 22:59N 36°12' W 007°40'4 8.5
2017-Apr-19 22:29N 36°13' W 007°45'3 6.6
2017-Apr-19 22:00N 36°14' W 007°49'4 8.4
2017-Apr-19 21:30N 36°16' W 007°54'5 8.9
2017-Apr-19 20:59N 36°17' W 007°59'5 9.4
2017-Apr-19 20:28N 36°19' W 008°05'4 9.3
2017-Apr-19 19:59N 36°20' W 008°10'1310.1
2017-Apr-19 18:40N 36°23' W 008°26'210.8
2017-Apr-19 18:27N 36°24' W 008°29'511.0
2017-Apr-19 18:00N 36°25' W 008°35'711.5
2017-Apr-19 17:22N 36°27' W 008°44'911.1
2017-Apr-19 16:33N 36°29' W 008°54'110.9
2017-Apr-19 16:30N 36°30' W 008°55'611.1
2017-Apr-19 16:00N 36°31' W 009°02'1611.2
2017-Apr-19 14:32N 36°37' W 009°21'311.7
2017-Apr-19 14:18N 36°39' W 009°23'911.5
2017-Apr-19 13:30N 36°46' W 009°31'611.4
2017-Apr-19 13:00N 36°51' W 009°34'611.5
2017-Apr-19 12:30N 36°57' W 009°35'611.4
2017-Apr-19 11:59N 37°02' W 009°37'711.1
2017-Apr-19 11:23N 37°09' W 009°39'811.1
2017-Apr-19 10:41N 37°17' W 009°41'311.4
2017-Apr-19 10:25N 37°20' W 009°42'511.6
2017-Apr-19 10:00N 37°24' W 009°43'611.5
2017-Apr-19 09:29N 37°30' W 009°45'713.0
2017-Apr-19 08:57N 37°37' W 009°47'816.9
2017-Apr-19 08:28N 37°45' W 009°50'712.3
2017-Apr-19 07:53N 37°52' W 009°51'812.2
2017-Apr-19 07:14N 37°59' W 009°54'912.4
2017-Apr-19 06:29N 38°09' W 009°56'612.6
2017-Apr-19 06:00N 38°14' W 009°58'612.4
2017-Apr-19 05:30N 38°20' W 010°00'612.7
2017-Apr-19 05:00N 38°27' W 010°02'612.5
2017-Apr-19 04:30N 38°33' W 010°04'612.4
2017-Apr-19 04:00N 38°39' W 010°05'612.4
2017-Apr-19 03:30N 38°45' W 010°06'612.6
2017-Apr-19 03:00N 38°51' W 010°06'612.6
2017-Apr-19 02:30N 38°58' W 010°06'612.7
2017-Apr-19 02:00N 39°04' W 010°06'612.4
2017-Apr-19 01:30N 39°10' W 010°06'612.4
2017-Apr-19 01:00N 39°16' W 010°06'612.3
2017-Apr-19 00:30N 39°22' W 010°06'612.4
2017-Apr-19 00:00N 39°29' W 010°06'712.3
2017-Apr-18 23:28N 39°35' W 010°06'1012.3
2017-Apr-18 22:39N 39°45' W 010°06'212.5
2017-Apr-18 22:29N 39°47' W 010°06'1412.3
2017-Apr-18 21:19N 40°02' W 010°06'  

Dump ship's entire track history